Southeast Texas Regional Airport
KBPT : now visible

Airfield :











YOU CAN JOIN US ON...

 
LOGIN :

Register | Disclaimer

   EN    FR    IT 

 









Legend :    VFR   Marginal VFR   IFR   Intensive IFR   Very Intensive IFR
Visi :
Ceiling :
>= 8 km
>= 3000ft
5 to 8 km
1000 to 3000 ft
1500m to 5 km
500 to 1000 ft
800 to 1500m
200 to 500 ft
< 800m
< 200 ft
Symbols :   Thunderstorms  Fog  Heavy snow  Heavy precipitations  Wind > 20 kt







- Airport Elevation : 15 ft
- IATA code : BPT


KBPT - Southeast Texas Regional

CURRENT METAR :
  • 201553Z 24004KT 10SM FEW026 SCT075 OVC110 28/24 A3005 RMK AO2 SLP176 T02780239

EXPIRED METARs :
  • 201453Z 09005KT 10SM BKN070 OVC110 26/23 A3005 RMK AO2 RAE24 SLP174 P0002 60041 T02610228 51023
  • 201353Z 11006KT 4SM RA BR FEW060 BKN110 25/23 A3002 RMK AO2 TSE06 SLP166 P0019 T02500233

TAF KBPT
Valid from the 20 at 13:00 until the 21 at 12:00 UTC


201246Z 2013/2112 10010KT P6SM VCSH SCT022 BKN120
TEMPO 2013/2015 VRB15G25KT 2SM +SHRA BKN025 OVC040
FM201500 13012KT P6SM -SHRA VCTS SCT025CB OVC100
FM202200 11008KT P6SM VCSH SCT035 BKN100
FM210300 10007KT P6SM FEW030 BKN120
No reported NOTAMs for that airfield.



MET'MAP, your aeronautical weather chart ! - Copyright ORBIFLY December 2007 - Disclaimer

ORBIFLY MET'MAP TEAM :

Programming & Development : Alexandra Zaïnal
Concept & Development : Baudouin d'Aumeries
Co-Development & Prog : Marc-Olivier Méhu
Technical & hardware support : Manuel Goepfert

Contact : metmap@orbifly.com




SOURCES & CREDITS :

   NOAA       Earth
Advisory